createdAt,value
2023-03-29T04:06:32.552Z,6.40
2023-03-29T04:09:18.734Z,6.23
2023-03-29T04:11:53.215Z,6.22
2023-03-29T04:14:21.594Z,6.17
2023-03-29T04:17:06.539Z,6.02
2023-03-29T04:19:47.066Z,6.28
2023-03-29T04:22:14.644Z,6.53
2023-03-29T04:24:43.126Z,6.45
2023-03-29T04:27:29.636Z,6.19
2023-03-29T04:29:58.717Z,5.98
2023-03-29T04:32:46.207Z,5.75
2023-03-29T04:35:13.678Z,5.59
2023-03-29T04:37:41.979Z,5.29
2023-03-29T04:40:14.527Z,5.17
2023-03-29T04:42:54.463Z,5.27
2023-03-29T04:45:22.151Z,5.34
2023-03-29T04:48:06.049Z,5.28
2023-03-29T04:50:36.517Z,5.10
2023-03-29T04:53:04.244Z,5.06
2023-03-29T04:55:32.200Z,5.08
2023-03-29T04:58:02.739Z,5.30
2023-03-29T05:00:33.330Z,5.70
2023-03-29T05:03:04.523Z,5.62
2023-03-29T05:05:35.366Z,5.58
2023-03-29T05:08:04.697Z,5.69
2023-03-29T05:10:43.512Z,6.27
2023-03-29T05:13:12.329Z,6.52
2023-03-29T05:15:42.087Z,6.25
2023-03-29T05:18:10.729Z,6.40
2023-03-29T05:20:40.555Z,6.45
2023-03-29T05:23:09.746Z,6.77
2023-03-29T05:26:08.093Z,6.73
2023-03-29T05:28:36.613Z,6.79
2023-03-29T05:31:06.031Z,6.97
2023-03-29T05:33:36.560Z,7.01
2023-03-29T05:36:08.631Z,6.73
2023-03-29T05:38:41.394Z,6.64
2023-03-29T05:41:08.974Z,6.85
2023-03-29T05:43:54.563Z,7.27
2023-03-29T05:46:25.353Z,7.09
2023-03-29T05:48:55.482Z,7.03
2023-03-29T05:51:33.400Z,7.02
2023-03-29T05:54:01.526Z,6.61
2023-03-29T05:56:29.214Z,6.54
2023-03-29T05:58:57.023Z,6.48
2023-03-29T06:01:25.894Z,6.67
2023-03-29T06:04:01.748Z,6.88
2023-03-29T06:06:37.931Z,6.97
2023-03-29T06:09:05.433Z,7.55
2023-03-29T06:11:56.436Z,7.88
2023-03-29T06:14:37.357Z,8.03
2023-03-29T06:17:19.063Z,7.87
2023-03-29T06:19:47.646Z,8.35
2023-03-29T06:22:17.109Z,8.82
2023-03-29T06:24:44.890Z,9.11
2023-03-29T06:27:23.496Z,9.35
2023-03-29T06:29:51.625Z,9.41
2023-03-29T06:32:19.944Z,9.43
2023-03-29T06:34:56.552Z,9.67
2023-03-29T06:37:40.639Z,9.91
2023-03-29T06:40:21.450Z,9.60
2023-03-29T06:42:49.276Z,9.52
2023-03-29T06:45:38.651Z,9.52
2023-03-29T06:48:12.562Z,9.71
2023-03-29T06:50:41.974Z,9.51
2023-03-29T06:53:15.746Z,9.40
2023-03-29T06:55:45.871Z,9.14
2023-03-29T06:58:31.800Z,8.99
2023-03-29T07:01:07.046Z,9.12
2023-03-29T07:03:55.664Z,8.95
2023-03-29T07:06:31.353Z,9.23
2023-03-29T07:09:01.810Z,9.48
2023-03-29T07:11:59.781Z,9.98
2023-03-29T07:14:30.045Z,10.47
2023-03-29T07:16:58.602Z,10.32
2023-03-29T07:19:34.166Z,10.54
2023-03-29T07:22:08.186Z,10.70
2023-03-29T07:24:45.753Z,10.99
2023-03-29T07:27:13.405Z,11.20
2023-03-29T07:29:40.864Z,11.36
2023-03-29T07:32:08.818Z,11.65
2023-03-29T07:34:42.476Z,11.64
2023-03-29T07:37:16.384Z,11.86
2023-03-29T07:39:45.880Z,12.17
2023-03-29T07:42:30.430Z,12.22
2023-03-29T07:44:59.911Z,12.33
2023-03-29T07:47:33.541Z,12.51
2023-03-29T07:50:02.234Z,12.13
2023-03-29T07:52:30.358Z,11.88
2023-03-29T07:54:59.055Z,11.72
2023-03-29T07:57:44.559Z,12.23
2023-03-29T08:00:16.985Z,12.73
2023-03-29T08:02:54.941Z,12.77
2023-03-29T08:05:37.887Z,13.06
2023-03-29T08:08:12.416Z,13.40
2023-03-29T08:10:57.352Z,13.52
2023-03-29T08:13:43.881Z,12.97
2023-03-29T08:16:26.910Z,12.91
2023-03-29T08:19:05.039Z,12.68
2023-03-29T08:22:02.756Z,12.56
2023-03-29T08:24:43.267Z,12.72
2023-03-29T08:27:11.281Z,12.62
2023-03-29T08:29:38.843Z,12.84
2023-03-29T08:32:07.071Z,12.89
2023-03-29T08:34:35.603Z,13.31
2023-03-29T08:37:18.418Z,13.06
2023-03-29T08:39:48.919Z,13.44
2023-03-29T08:43:02.029Z,13.24
2023-03-29T08:46:01.681Z,13.11
2023-03-29T08:49:05.513Z,13.39
2023-03-29T08:51:40.741Z,13.97
2023-03-29T08:54:12.803Z,14.31
2023-03-29T08:57:17.061Z,14.64
2023-03-29T08:59:52.369Z,14.63
2023-03-29T09:02:27.338Z,14.83
2023-03-29T09:05:18.551Z,14.75
2023-03-29T09:07:56.124Z,14.62
2023-03-29T09:10:42.420Z,14.78
2023-03-29T09:13:49.525Z,14.77
2023-03-29T09:16:26.595Z,14.32
2023-03-29T09:19:22.521Z,14.37
2023-03-29T09:21:50.662Z,14.33
2023-03-29T09:24:44.449Z,13.74
2023-03-29T09:27:32.399Z,13.81
2023-03-29T09:30:19.267Z,14.12
2023-03-29T09:32:57.448Z,14.14
2023-03-29T09:36:03.207Z,14.85
2023-03-29T09:38:33.120Z,14.92
2023-03-29T09:41:21.590Z,15.22
2023-03-29T09:43:52.260Z,15.10
2023-03-29T09:46:36.372Z,14.72
2023-03-29T09:49:10.300Z,14.22
2023-03-29T09:51:39.205Z,14.08
2023-03-29T09:54:06.879Z,14.93
2023-03-29T09:56:49.963Z,14.91
2023-03-29T09:59:21.283Z,15.17
2023-03-29T10:01:48.846Z,14.93
2023-03-29T10:04:17.548Z,14.92
2023-03-29T10:06:52.640Z,15.35
2023-03-29T10:09:23.005Z,14.75
2023-03-29T10:11:57.150Z,15.00
2023-03-29T10:14:31.021Z,15.70
2023-03-29T10:16:59.135Z,15.86
2023-03-29T10:19:34.455Z,15.14
2023-03-29T10:22:05.579Z,14.66
2023-03-29T10:24:33.581Z,14.49
2023-03-29T10:27:04.552Z,15.27
2023-03-29T10:29:38.911Z,15.77
2023-03-29T10:32:16.435Z,14.99
2023-03-29T10:34:46.891Z,15.24
2023-03-29T10:37:19.327Z,15.09
2023-03-29T10:39:48.835Z,14.88
2023-03-29T10:42:18.996Z,14.61
2023-03-29T10:44:55.389Z,14.48
2023-03-29T10:47:23.561Z,14.51
2023-03-29T10:49:57.272Z,15.06
2023-03-29T10:52:26.159Z,15.85
2023-03-29T10:54:56.289Z,14.93
2023-03-29T10:57:45.671Z,15.07
2023-03-29T11:00:34.284Z,14.93
2023-03-29T11:03:29.396Z,16.22
2023-03-29T11:06:12.727Z,16.65
2023-03-29T11:09:01.639Z,17.18
2023-03-29T11:11:44.485Z,16.51
2023-03-29T11:14:41.364Z,16.68
2023-03-29T11:17:28.951Z,16.97
2023-03-29T11:20:08.541Z,16.61
2023-03-29T11:22:45.137Z,16.83
2023-03-29T11:25:34.682Z,15.77
2023-03-29T11:28:19.753Z,16.92
2023-03-29T11:31:12.358Z,16.49
2023-03-29T11:34:15.674Z,16.62
2023-03-29T11:36:55.473Z,16.21
2023-03-29T11:40:00.313Z,16.80
2023-03-29T11:42:32.218Z,17.14
2023-03-29T11:45:02.477Z,17.60
2023-03-29T11:47:36.589Z,17.54
2023-03-29T11:50:23.118Z,17.18
2023-03-29T11:52:59.226Z,16.53
2023-03-29T11:55:39.293Z,16.69
2023-03-29T11:58:22.413Z,17.20
2023-03-29T12:01:16.389Z,17.98
2023-03-29T12:03:53.262Z,17.22
2023-03-29T12:06:38.410Z,17.69
2023-03-29T12:09:14.216Z,17.14
2023-03-29T12:11:52.851Z,17.69
2023-03-29T12:15:01.506Z,17.34
2023-03-29T12:17:38.944Z,17.20
2023-03-29T12:20:26.760Z,17.34
2023-03-29T12:22:56.144Z,17.88
2023-03-29T12:25:41.242Z,17.61
2023-03-29T12:28:23.949Z,17.79
2023-03-29T12:31:04.444Z,17.91
2023-03-29T12:33:43.926Z,18.14
2023-03-29T12:36:36.315Z,17.61
2023-03-29T12:39:29.190Z,18.24
2023-03-29T12:42:21.712Z,18.32
2023-03-29T12:45:32.557Z,19.22
2023-03-29T12:48:01.353Z,18.72
2023-03-29T12:50:28.973Z,18.69
2023-03-29T12:53:23.476Z,18.06
2023-03-29T12:56:03.036Z,17.69
2023-03-29T12:58:40.266Z,18.21
2023-03-29T13:01:24.735Z,18.43
2023-03-29T13:04:01.499Z,18.03
2023-03-29T13:06:56.217Z,18.63
2023-03-29T13:09:29.910Z,18.41
2023-03-29T13:12:05.100Z,18.25
2023-03-29T13:14:37.404Z,18.93
2023-03-29T13:17:18.308Z,18.62
2023-03-29T13:20:15.668Z,18.87
2023-03-29T13:23:20.626Z,18.43
2023-03-29T13:26:16.891Z,19.07
2023-03-29T13:29:05.276Z,18.71
2023-03-29T13:31:52.252Z,19.15
2023-03-29T13:34:25.589Z,18.67
2023-03-29T13:37:01.525Z,18.72
2023-03-29T13:39:31.931Z,19.31
2023-03-29T13:42:35.315Z,19.32
2023-03-29T13:45:17.321Z,20.21
2023-03-29T13:47:54.877Z,20.30
2023-03-29T13:50:39.360Z,19.75
2023-03-29T13:53:15.606Z,19.25
2023-03-29T13:55:51.637Z,19.34
2023-03-29T13:58:52.416Z,20.65
2023-03-29T14:01:23.212Z,20.50
2023-03-29T14:03:52.872Z,20.47
2023-03-29T14:06:33.632Z,19.29
2023-03-29T14:09:06.411Z,19.99
2023-03-29T14:11:34.471Z,20.64
2023-03-29T14:14:08.512Z,21.06
2023-03-29T14:16:39.667Z,21.63
2023-03-29T14:19:17.452Z,27.94
2023-03-29T14:21:45.485Z,23.50
2023-03-29T14:24:26.030Z,26.25
2023-03-29T14:26:55.167Z,27.19
2023-03-29T14:29:25.392Z,31.83
2023-03-29T14:31:53.077Z,26.30
2023-03-29T14:34:20.653Z,26.31
2023-03-29T14:36:49.384Z,27.88
2023-03-29T14:39:20.404Z,26.21
2023-03-29T14:41:53.234Z,27.14
2023-03-29T14:44:24.625Z,27.72
2023-03-29T14:46:52.400Z,27.86
2023-03-29T14:49:22.931Z,27.32
2023-03-29T14:51:52.212Z,26.06
2023-03-29T14:54:27.553Z,26.95
2023-03-29T14:56:55.888Z,27.54
2023-03-29T14:59:28.125Z,28.20
2023-03-29T15:01:56.505Z,30.71
2023-03-29T15:04:24.622Z,26.52
2023-03-29T15:06:52.879Z,27.08
2023-03-29T15:09:27.056Z,30.31
2023-03-29T15:11:57.318Z,32.84
2023-03-29T15:14:28.392Z,31.46
2023-03-29T15:17:02.152Z,29.83
2023-03-29T15:19:29.539Z,28.68
2023-03-29T15:21:58.405Z,26.95
2023-03-29T15:24:31.580Z,28.12
2023-03-29T15:27:14.629Z,28.62
2023-03-29T15:29:43.261Z,27.14
2023-03-29T15:32:23.290Z,26.79
2023-03-29T15:35:01.988Z,28.25
2023-03-29T15:37:29.444Z,26.89
2023-03-29T15:39:57.482Z,26.99
2023-03-29T15:42:25.662Z,26.79
2023-03-29T15:44:56.634Z,27.17
2023-03-29T15:47:24.413Z,28.23
2023-03-29T15:49:51.834Z,27.63
2023-03-29T15:52:19.855Z,26.94
2023-03-29T15:54:47.183Z,31.52
2023-03-29T15:57:16.198Z,31.90
2023-03-29T15:59:44.757Z,28.29
2023-03-29T16:02:16.743Z,26.55
2023-03-29T16:04:44.616Z,28.18
2023-03-29T16:07:14.900Z,26.93
2023-03-29T16:09:42.910Z,28.94
2023-03-29T16:12:10.536Z,28.14
2023-03-29T16:14:38.437Z,25.89
2023-03-29T16:17:06.265Z,23.55
2023-03-29T16:19:33.849Z,23.92
2023-03-29T16:22:05.080Z,23.80
2023-03-29T16:24:34.963Z,23.13
2023-03-29T16:27:03.802Z,21.98
2023-03-29T16:29:32.080Z,21.15
2023-03-29T16:31:59.878Z,22.33
2023-03-29T16:34:28.313Z,21.25
2023-03-29T16:36:56.125Z,21.93
2023-03-29T16:39:23.607Z,22.46
2023-03-29T16:41:51.395Z,21.62
2023-03-29T16:44:23.858Z,20.82
2023-03-29T16:46:57.816Z,20.38
2023-03-29T16:49:25.670Z,19.51
2023-03-29T16:51:53.149Z,19.74
2023-03-29T16:54:20.654Z,19.24
2023-03-29T16:56:48.257Z,18.87
2023-03-29T16:59:15.661Z,18.55
2023-03-29T17:01:43.170Z,18.45
2023-03-29T17:04:11.557Z,18.36
2023-03-29T17:06:38.953Z,18.23
2023-03-29T17:09:07.324Z,17.98
2023-03-29T17:11:35.997Z,18.03
2023-03-29T17:14:04.026Z,17.79
2023-03-29T17:16:32.270Z,17.75
2023-03-29T17:19:00.505Z,17.69
2023-03-29T17:21:29.633Z,17.59
2023-03-29T17:23:57.068Z,17.58
2023-03-29T17:26:24.418Z,17.69
2023-03-29T17:28:52.259Z,17.45
2023-03-29T17:31:19.922Z,17.54
2023-03-29T17:33:47.645Z,17.23
2023-03-29T17:36:15.815Z,17.03
2023-03-29T17:38:43.322Z,17.00
2023-03-29T17:41:11.378Z,17.11
2023-03-29T17:43:39.117Z,16.88
2023-03-29T17:46:06.844Z,16.84
2023-03-29T17:48:35.071Z,16.79
2023-03-29T17:51:02.562Z,16.59
2023-03-29T17:53:30.029Z,16.52
2023-03-29T17:55:57.469Z,16.40
2023-03-29T17:58:24.875Z,16.38
2023-03-29T18:00:52.236Z,16.27
2023-03-29T18:03:19.800Z,16.27
2023-03-29T18:05:48.200Z,16.13
2023-03-29T18:08:16.852Z,16.10
2023-03-29T18:10:44.358Z,16.00
2023-03-29T18:13:13.978Z,15.86
2023-03-29T18:15:42.438Z,15.89
2023-03-29T18:18:11.210Z,15.81
2023-03-29T18:20:39.164Z,15.85
2023-03-29T18:23:06.655Z,15.75
2023-03-29T18:25:34.613Z,15.90
2023-03-29T18:28:02.008Z,15.80
2023-03-29T18:30:30.529Z,15.99
2023-03-29T18:32:58.951Z,15.68
2023-03-29T18:35:27.339Z,15.57
2023-03-29T18:37:55.061Z,15.45
2023-03-29T18:40:26.232Z,15.50
2023-03-29T18:42:53.772Z,15.49
2023-03-29T18:45:22.221Z,15.61
2023-03-29T18:47:50.685Z,15.53
2023-03-29T18:50:18.850Z,15.54
2023-03-29T18:52:46.218Z,15.46
2023-03-29T18:55:13.992Z,15.34
2023-03-29T18:57:41.794Z,15.27
2023-03-29T19:00:12.342Z,15.21
2023-03-29T19:02:40.777Z,15.28
2023-03-29T19:05:10.840Z,15.27
2023-03-29T19:07:38.834Z,15.19
2023-03-29T19:10:08.367Z,15.09
2023-03-29T19:12:36.356Z,15.01
2023-03-29T19:15:04.091Z,15.01
2023-03-29T19:17:31.659Z,14.89
2023-03-29T19:19:59.440Z,14.90
2023-03-29T19:22:26.820Z,14.92
2023-03-29T19:24:54.708Z,14.93
2023-03-29T19:27:22.375Z,14.95
2023-03-29T19:29:49.810Z,15.00
2023-03-29T19:32:17.688Z,15.05
2023-03-29T19:34:45.055Z,15.12
2023-03-29T19:37:13.072Z,15.27
2023-03-29T19:39:41.466Z,15.19
2023-03-29T19:42:09.360Z,15.17
2023-03-29T19:44:38.326Z,14.92
2023-03-29T19:47:06.042Z,14.74
2023-03-29T19:49:39.429Z,14.65
2023-03-29T19:52:07.656Z,14.61
2023-03-29T19:54:35.306Z,14.46
2023-03-29T19:57:04.089Z,14.51
2023-03-29T19:59:32.526Z,14.54
2023-03-29T20:02:02.208Z,14.44
2023-03-29T20:04:29.689Z,14.47
2023-03-29T20:06:57.671Z,14.41
2023-03-29T20:09:25.304Z,14.42
2023-03-29T20:11:53.708Z,14.54
2023-03-29T20:14:21.644Z,14.31
2023-03-29T20:16:50.615Z,14.35
2023-03-29T20:19:18.809Z,14.26
2023-03-29T20:21:46.197Z,14.17
2023-03-29T20:24:13.511Z,14.14
2023-03-29T20:26:41.072Z,14.11
2023-03-29T20:29:08.899Z,14.06
2023-03-29T20:31:36.402Z,14.08
2023-03-29T20:34:03.929Z,14.20
2023-03-29T20:36:31.986Z,14.12
2023-03-29T20:39:00.267Z,13.99
2023-03-29T20:41:28.143Z,13.97
2023-03-29T20:43:59.892Z,14.16
2023-03-29T20:46:33.285Z,14.10
2023-03-29T20:49:03.389Z,14.16
2023-03-29T20:51:32.101Z,14.26
2023-03-29T20:54:04.717Z,14.17
2023-03-29T20:56:34.842Z,14.44
2023-03-29T20:59:03.996Z,14.55
2023-03-29T21:01:32.512Z,14.70
2023-03-29T21:04:00.015Z,14.54
2023-03-29T21:06:27.515Z,14.38
2023-03-29T21:08:54.881Z,14.14
2023-03-29T21:11:22.230Z,14.41
2023-03-29T21:13:50.272Z,14.36
2023-03-29T21:16:18.407Z,14.43
2023-03-29T21:18:45.975Z,14.69
2023-03-29T21:21:13.725Z,14.75
2023-03-29T21:23:41.243Z,14.85
2023-03-29T21:26:08.742Z,14.89
2023-03-29T21:28:37.588Z,14.97
2023-03-29T21:31:06.156Z,14.67
2023-03-29T21:33:35.165Z,14.47
2023-03-29T21:36:02.743Z,14.73
2023-03-29T21:38:30.702Z,14.55
2023-03-29T21:41:00.279Z,14.66
2023-03-29T21:43:28.873Z,14.53
2023-03-29T21:45:57.659Z,14.28
2023-03-29T21:48:25.119Z,14.05
2023-03-29T21:50:52.956Z,14.12
2023-03-29T21:53:20.390Z,14.36
2023-03-29T21:55:52.317Z,14.37
2023-03-29T21:58:20.255Z,14.50
2023-03-29T22:00:48.137Z,14.51
2023-03-29T22:03:17.060Z,14.24
2023-03-29T22:05:58.906Z,14.61
2023-03-29T22:08:26.820Z,14.36
2023-03-29T22:10:56.848Z,14.01
2023-03-29T22:13:27.021Z,13.66
2023-03-29T22:16:01.025Z,13.48
2023-03-29T22:18:43.555Z,13.13
2023-03-29T22:21:15.936Z,13.06
2023-03-29T22:23:46.375Z,12.94
2023-03-29T22:26:16.183Z,12.98
2023-03-29T22:28:43.616Z,13.23
2023-03-29T22:31:14.278Z,13.03
2023-03-29T22:33:42.219Z,12.75
2023-03-29T22:36:27.982Z,12.61
2023-03-29T22:38:56.521Z,12.67
2023-03-29T22:41:26.057Z,12.61
2023-03-29T22:43:55.990Z,12.35
2023-03-29T22:46:24.515Z,12.21
2023-03-29T22:48:52.456Z,12.03
2023-03-29T22:51:20.376Z,12.03
2023-03-29T22:53:47.789Z,11.89
2023-03-29T22:56:16.563Z,12.05
2023-03-29T22:58:44.448Z,12.05
2023-03-29T23:01:12.934Z,11.99
2023-03-29T23:03:41.016Z,12.13
2023-03-29T23:06:08.418Z,12.22
2023-03-29T23:08:36.300Z,12.10
2023-03-29T23:11:04.536Z,12.08
2023-03-29T23:13:33.641Z,12.05
2023-03-29T23:16:03.665Z,11.92
2023-03-29T23:18:34.915Z,11.77
2023-03-29T23:21:05.596Z,11.97
2023-03-29T23:23:33.915Z,12.06
2023-03-29T23:26:01.973Z,11.68
2023-03-29T23:28:34.544Z,11.68
2023-03-29T23:31:06.998Z,11.77
2023-03-29T23:33:36.340Z,12.00
2023-03-29T23:36:06.123Z,11.78
2023-03-29T23:38:36.179Z,11.68
2023-03-29T23:41:06.515Z,11.64
2023-03-29T23:43:37.307Z,11.54
2023-03-29T23:46:07.098Z,11.73
2023-03-29T23:48:34.845Z,11.71
2023-03-29T23:51:03.184Z,11.61
2023-03-29T23:53:32.114Z,11.70
2023-03-29T23:56:01.651Z,11.43
2023-03-29T23:58:31.223Z,11.43
